sensor_id;sensor_type;location;lat;lon;timestamp;P1;durP1;ratioP1;P2;durP2;ratioP2
41229;SDS011;26964;50.428;19.218;2022-09-13T00:02:51;23.5;;;17.9;;
41229;SDS011;26964;50.428;19.218;2022-09-13T00:07:51;25.0;;;21.2;;
41229;SDS011;26964;50.428;19.218;2022-09-13T00:12:51;26.6;;;21.5;;
41229;SDS011;26964;50.428;19.218;2022-09-13T00:17:51;39.6;;;21.4;;
41229;SDS011;26964;50.428;19.218;2022-09-13T00:22:51;32.4;;;16.9;;
41229;SDS011;26964;50.428;19.218;2022-09-13T00:27:51;31.2;;;13.6;;
41229;SDS011;26964;50.428;19.218;2022-09-13T00:32:51;13.0;;;9.2;;
41229;SDS011;26964;50.428;19.218;2022-09-13T00:37:51;16.9;;;9.9;;
41229;SDS011;26964;50.428;19.218;2022-09-13T00:42:51;14.3;;;7.2;;
41229;SDS011;26964;50.428;19.218;2022-09-13T00:47:52;11.2;;;7.5;;
41229;SDS011;26964;50.428;19.218;2022-09-13T00:52:51;23.5;;;9.4;;
41229;SDS011;26964;50.428;19.218;2022-09-13T00:57:51;25.0;;;7.5;;
41229;SDS011;26964;50.428;19.218;2022-09-13T01:02:52;11.5;;;7.2;;
41229;SDS011;26964;50.428;19.218;2022-09-13T01:07:51;12.2;;;7.5;;
41229;SDS011;26964;50.428;19.218;2022-09-13T01:12:52;13.5;;;7.7;;
41229;SDS011;26964;50.428;19.218;2022-09-13T01:17:51;13.5;;;7.7;;
41229;SDS011;26964;50.428;19.218;2022-09-13T01:37:51;8.9;;;5.7;;
41229;SDS011;26964;50.428;19.218;2022-09-13T01:47:51;22.5;;;6.7;;
41229;SDS011;26964;50.428;19.218;2022-09-13T01:52:52;11.4;;;5.6;;
41229;SDS011;26964;50.428;19.218;2022-09-13T01:57:51;8.0;;;5.6;;
41229;SDS011;26964;50.428;19.218;2022-09-13T02:02:51;14.0;;;7.4;;
41229;SDS011;26964;50.428;19.218;2022-09-13T02:07:52;9.8;;;6.6;;
41229;SDS011;26964;50.428;19.218;2022-09-13T02:12:51;12.1;;;7.4;;
41229;SDS011;26964;50.428;19.218;2022-09-13T02:17:53;19.9;;;8.2;;
41229;SDS011;26964;50.428;19.218;2022-09-13T02:22:51;23.0;;;8.2;;
41229;SDS011;26964;50.428;19.218;2022-09-13T02:27:51;11.3;;;8.0;;
41229;SDS011;26964;50.428;19.218;2022-09-13T02:32:52;16.5;;;9.0;;
41229;SDS011;26964;50.428;19.218;2022-09-13T02:37:52;45.1;;;12.0;;
41229;SDS011;26964;50.428;19.218;2022-09-13T02:42:51;48.7;;;13.2;;
41229;SDS011;26964;50.428;19.218;2022-09-13T02:47:52;44.4;;;13.9;;
41229;SDS011;26964;50.428;19.218;2022-09-13T02:52:52;79.2;;;16.4;;
41229;SDS011;26964;50.428;19.218;2022-09-13T02:57:52;59.0;;;17.5;;
41229;SDS011;26964;50.428;19.218;2022-09-13T03:02:51;54.4;;;19.2;;
41229;SDS011;26964;50.428;19.218;2022-09-13T03:07:50;60.6;;;20.9;;
41229;SDS011;26964;50.428;19.218;2022-09-13T03:17:53;57.6;;;22.2;;
41229;SDS011;26964;50.428;19.218;2022-09-13T03:27:53;54.6;;;23.9;;
41229;SDS011;26964;50.428;19.218;2022-09-13T03:32:51;63.6;;;23.6;;
41229;SDS011;26964;50.428;19.218;2022-09-13T03:37:53;63.4;;;21.6;;
41229;SDS011;26964;50.428;19.218;2022-09-13T03:42:51;61.4;;;23.1;;
41229;SDS011;26964;50.428;19.218;2022-09-13T03:47:50;50.5;;;22.1;;
41229;SDS011;26964;50.428;19.218;2022-09-13T03:52:51;49.9;;;22.8;;
41229;SDS011;26964;50.428;19.218;2022-09-13T03:57:50;40.1;;;22.8;;
41229;SDS011;26964;50.428;19.218;2022-09-13T04:02:50;42.1;;;20.3;;
41229;SDS011;26964;50.428;19.218;2022-09-13T04:07:50;60.3;;;21.9;;
41229;SDS011;26964;50.428;19.218;2022-09-13T04:12:50;34.8;;;20.4;;
41229;SDS011;26964;50.428;19.218;2022-09-13T04:17:51;63.6;;;23.8;;
41229;SDS011;26964;50.428;19.218;2022-09-13T04:22:51;90.6;;;21.9;;
41229;SDS011;26964;50.428;19.218;2022-09-13T04:27:52;140.4;;;23.9;;
41229;SDS011;26964;50.428;19.218;2022-09-13T04:32:50;61.2;;;21.4;;
41229;SDS011;26964;50.428;19.218;2022-09-13T04:37:51;94.4;;;23.1;;
41229;SDS011;26964;50.428;19.218;2022-09-13T04:42:50;92.9;;;21.7;;
41229;SDS011;26964;50.428;19.218;2022-09-13T04:47:50;64.3;;;21.5;;
41229;SDS011;26964;50.428;19.218;2022-09-13T04:57:52;61.2;;;18.1;;
41229;SDS011;26964;50.428;19.218;2022-09-13T05:07:51;60.1;;;19.1;;
41229;SDS011;26964;50.428;19.218;2022-09-13T05:12:51;58.0;;;17.4;;
41229;SDS011;26964;50.428;19.218;2022-09-13T05:17:51;98.3;;;18.7;;
41229;SDS011;26964;50.428;19.218;2022-09-13T05:22:50;65.1;;;18.6;;
41229;SDS011;26964;50.428;19.218;2022-09-13T05:27:50;93.6;;;19.0;;
41229;SDS011;26964;50.428;19.218;2022-09-13T05:32:50;74.1;;;18.7;;
41229;SDS011;26964;50.428;19.218;2022-09-13T05:37:50;82.3;;;21.1;;
41229;SDS011;26964;50.428;19.218;2022-09-13T05:42:51;81.0;;;21.4;;
41229;SDS011;26964;50.428;19.218;2022-09-13T05:47:50;79.4;;;21.6;;
41229;SDS011;26964;50.428;19.218;2022-09-13T05:52:51;76.9;;;23.0;;
41229;SDS011;26964;50.428;19.218;2022-09-13T05:57:51;48.0;;;22.6;;
41229;SDS011;26964;50.428;19.218;2022-09-13T06:02:51;100.9;;;22.7;;
41229;SDS011;26964;50.428;19.218;2022-09-13T06:07:50;120.3;;;25.4;;
41229;SDS011;26964;50.428;19.218;2022-09-13T06:12:50;59.4;;;21.4;;
41229;SDS011;26964;50.428;19.218;2022-09-13T06:17:51;87.2;;;22.7;;
41229;SDS011;26964;50.428;19.218;2022-09-13T06:22:50;113.4;;;23.1;;
41229;SDS011;26964;50.428;19.218;2022-09-13T06:27:50;93.6;;;24.1;;
41229;SDS011;26964;50.428;19.218;2022-09-13T06:32:50;80.4;;;30.1;;
41229;SDS011;26964;50.428;19.218;2022-09-13T06:37:52;55.9;;;25.9;;
41229;SDS011;26964;50.428;19.218;2022-09-13T06:42:50;84.9;;;26.0;;
41229;SDS011;26964;50.428;19.218;2022-09-13T06:47:52;68.0;;;28.4;;
41229;SDS011;26964;50.428;19.218;2022-09-13T06:52:50;55.7;;;27.4;;
41229;SDS011;26964;50.428;19.218;2022-09-13T06:57:50;51.3;;;28.0;;
41229;SDS011;26964;50.428;19.218;2022-09-13T07:02:51;47.2;;;28.9;;
41229;SDS011;26964;50.428;19.218;2022-09-13T07:07:50;45.2;;;29.3;;
41229;SDS011;26964;50.428;19.218;2022-09-13T07:12:50;42.3;;;29.0;;
41229;SDS011;26964;50.428;19.218;2022-09-13T07:17:50;44.2;;;29.6;;
41229;SDS011;26964;50.428;19.218;2022-09-13T07:22:50;38.5;;;28.6;;
41229;SDS011;26964;50.428;19.218;2022-09-13T07:27:50;44.0;;;31.3;;
41229;SDS011;26964;50.428;19.218;2022-09-13T07:32:50;47.3;;;32.2;;
41229;SDS011;26964;50.428;19.218;2022-09-13T07:37:50;42.6;;;32.0;;
41229;SDS011;26964;50.428;19.218;2022-09-13T07:42:51;42.8;;;32.3;;
41229;SDS011;26964;50.428;19.218;2022-09-13T07:47:51;48.6;;;31.9;;
41229;SDS011;26964;50.428;19.218;2022-09-13T07:52:50;43.9;;;32.1;;
41229;SDS011;26964;50.428;19.218;2022-09-13T07:57:50;41.8;;;31.1;;
41229;SDS011;26964;50.428;19.218;2022-09-13T08:02:50;40.2;;;30.5;;
41229;SDS011;26964;50.428;19.218;2022-09-13T08:07:50;44.7;;;28.6;;
41229;SDS011;26964;50.428;19.218;2022-09-13T08:12:50;39.8;;;26.4;;
41229;SDS011;26964;50.428;19.218;2022-09-13T08:17:50;35.5;;;25.5;;
41229;SDS011;26964;50.428;19.218;2022-09-13T08:22:50;33.6;;;24.3;;
41229;SDS011;26964;50.428;19.218;2022-09-13T08:27:50;41.4;;;23.9;;
41229;SDS011;26964;50.428;19.218;2022-09-13T08:32:50;35.8;;;23.4;;
41229;SDS011;26964;50.428;19.218;2022-09-13T08:37:50;37.4;;;22.0;;
41229;SDS011;26964;50.428;19.218;2022-09-13T08:42:50;32.9;;;21.9;;
41229;SDS011;26964;50.428;19.218;2022-09-13T08:47:51;33.6;;;19.4;;
41229;SDS011;26964;50.428;19.218;2022-09-13T08:57:52;22.3;;;13.6;;
41229;SDS011;26964;50.428;19.218;2022-09-13T09:07:51;13.0;;;6.9;;
41229;SDS011;26964;50.428;19.218;2022-09-13T09:12:51;6.9;;;5.1;;
41229;SDS011;26964;50.428;19.218;2022-09-13T09:17:53;9.6;;;4.7;;
41229;SDS011;26964;50.428;19.218;2022-09-13T09:22:51;6.3;;;4.6;;
41229;SDS011;26964;50.428;19.218;2022-09-13T09:27:50;14.4;;;6.8;;
41229;SDS011;26964;50.428;19.218;2022-09-13T09:32:54;9.6;;;4.7;;
41229;SDS011;26964;50.428;19.218;2022-09-13T09:37:54;7.5;;;4.7;;
41229;SDS011;26964;50.428;19.218;2022-09-13T09:42:50;7.1;;;4.3;;
41229;SDS011;26964;50.428;19.218;2022-09-13T09:47:50;8.1;;;3.7;;
41229;SDS011;26964;50.428;19.218;2022-09-13T09:52:51;8.1;;;3.3;;
41229;SDS011;26964;50.428;19.218;2022-09-13T09:57:51;6.6;;;3.7;;
41229;SDS011;26964;50.428;19.218;2022-09-13T10:02:50;5.2;;;3.6;;
41229;SDS011;26964;50.428;19.218;2022-09-13T10:07:51;5.7;;;3.2;;
41229;SDS011;26964;50.428;19.218;2022-09-13T10:12:50;5.1;;;3.4;;
41229;SDS011;26964;50.428;19.218;2022-09-13T10:37:50;9.4;;;5.6;;
41229;SDS011;26964;50.428;19.218;2022-09-13T10:42:51;6.9;;;4.4;;
41229;SDS011;26964;50.428;19.218;2022-09-13T10:47:50;4.8;;;3.9;;
41229;SDS011;26964;50.428;19.218;2022-09-13T10:52:50;4.7;;;3.5;;
41229;SDS011;26964;50.428;19.218;2022-09-13T10:57:51;16.0;;;4.9;;
41229;SDS011;26964;50.428;19.218;2022-09-13T11:12:52;6.4;;;4.3;;
41229;SDS011;26964;50.428;19.218;2022-09-13T11:27:52;4.1;;;2.6;;
41229;SDS011;26964;50.428;19.218;2022-09-13T11:32:53;5.5;;;3.1;;
41229;SDS011;26964;50.428;19.218;2022-09-13T11:42:51;4.7;;;3.2;;
41229;SDS011;26964;50.428;19.218;2022-09-13T11:52:54;6.9;;;2.8;;
41229;SDS011;26964;50.428;19.218;2022-09-13T11:57:51;6.3;;;2.8;;
41229;SDS011;26964;50.428;19.218;2022-09-13T12:02:54;6.4;;;2.7;;
41229;SDS011;26964;50.428;19.218;2022-09-13T12:07:52;5.3;;;2.9;;
41229;SDS011;26964;50.428;19.218;2022-09-13T12:12:51;7.5;;;3.0;;
41229;SDS011;26964;50.428;19.218;2022-09-13T12:17:53;4.2;;;2.8;;
41229;SDS011;26964;50.428;19.218;2022-09-13T12:22:49;6.5;;;2.9;;
41229;SDS011;26964;50.428;19.218;2022-09-13T12:27:53;5.2;;;3.0;;
41229;SDS011;26964;50.428;19.218;2022-09-13T12:32:50;6.3;;;3.1;;
41229;SDS011;26964;50.428;19.218;2022-09-13T12:52:51;6.0;;;3.3;;
41229;SDS011;26964;50.428;19.218;2022-09-13T12:57:51;6.9;;;3.4;;
41229;SDS011;26964;50.428;19.218;2022-09-13T13:02:51;5.6;;;3.2;;
41229;SDS011;26964;50.428;19.218;2022-09-13T13:07:51;8.4;;;3.3;;
41229;SDS011;26964;50.428;19.218;2022-09-13T13:12:50;5.1;;;3.3;;
41229;SDS011;26964;50.428;19.218;2022-09-13T13:17:50;5.6;;;4.0;;
41229;SDS011;26964;50.428;19.218;2022-09-13T13:22:50;5.7;;;3.6;;
41229;SDS011;26964;50.428;19.218;2022-09-13T13:27:51;5.8;;;2.8;;
41229;SDS011;26964;50.428;19.218;2022-09-13T13:37:50;5.9;;;3.3;;
41229;SDS011;26964;50.428;19.218;2022-09-13T13:42:51;5.9;;;3.2;;
41229;SDS011;26964;50.428;19.218;2022-09-13T13:47:52;5.7;;;3.3;;
41229;SDS011;26964;50.428;19.218;2022-09-13T13:52:52;4.3;;;3.1;;
41229;SDS011;26964;50.428;19.218;2022-09-13T13:57:56;4.7;;;3.5;;
41229;SDS011;26964;50.428;19.218;2022-09-13T14:02:52;5.9;;;3.4;;
41229;SDS011;26964;50.428;19.218;2022-09-13T14:22:51;4.8;;;2.9;;
41229;SDS011;26964;50.428;19.218;2022-09-13T14:27:51;7.2;;;3.1;;
41229;SDS011;26964;50.428;19.218;2022-09-13T14:32:51;4.9;;;3.1;;
41229;SDS011;26964;50.428;19.218;2022-09-13T14:37:50;4.4;;;3.0;;
41229;SDS011;26964;50.428;19.218;2022-09-13T14:42:49;8.6;;;4.1;;
41229;SDS011;26964;50.428;19.218;2022-09-13T14:47:51;5.2;;;3.4;;
41229;SDS011;26964;50.428;19.218;2022-09-13T14:52:55;5.8;;;2.9;;
41229;SDS011;26964;50.428;19.218;2022-09-13T14:57:50;6.2;;;3.1;;
41229;SDS011;26964;50.428;19.218;2022-09-13T15:02:51;7.8;;;3.5;;
41229;SDS011;26964;50.428;19.218;2022-09-13T15:07:50;6.6;;;3.3;;
41229;SDS011;26964;50.428;19.218;2022-09-13T15:12:51;7.2;;;3.3;;
41229;SDS011;26964;50.428;19.218;2022-09-13T15:17:50;6.3;;;4.4;;
41229;SDS011;26964;50.428;19.218;2022-09-13T15:22:49;4.8;;;3.1;;
41229;SDS011;26964;50.428;19.218;2022-09-13T15:27:51;6.1;;;3.7;;
41229;SDS011;26964;50.428;19.218;2022-09-13T15:42:50;6.7;;;3.4;;
41229;SDS011;26964;50.428;19.218;2022-09-13T15:47:50;5.8;;;3.5;;
41229;SDS011;26964;50.428;19.218;2022-09-13T15:52:49;7.3;;;3.9;;
41229;SDS011;26964;50.428;19.218;2022-09-13T15:57:50;5.6;;;3.5;;
41229;SDS011;26964;50.428;19.218;2022-09-13T16:02:50;5.9;;;3.3;;
41229;SDS011;26964;50.428;19.218;2022-09-13T16:07:49;4.4;;;3.0;;
41229;SDS011;26964;50.428;19.218;2022-09-13T16:12:50;5.6;;;3.4;;
41229;SDS011;26964;50.428;19.218;2022-09-13T16:17:50;6.1;;;3.5;;
41229;SDS011;26964;50.428;19.218;2022-09-13T16:22:49;6.4;;;3.5;;
41229;SDS011;26964;50.428;19.218;2022-09-13T16:27:50;6.0;;;2.8;;
41229;SDS011;26964;50.428;19.218;2022-09-13T16:32:50;5.7;;;3.4;;
41229;SDS011;26964;50.428;19.218;2022-09-13T16:37:50;8.5;;;3.4;;
41229;SDS011;26964;50.428;19.218;2022-09-13T16:42:51;5.8;;;3.7;;
41229;SDS011;26964;50.428;19.218;2022-09-13T16:47:49;6.5;;;3.7;;
41229;SDS011;26964;50.428;19.218;2022-09-13T16:52:49;5.5;;;3.8;;
41229;SDS011;26964;50.428;19.218;2022-09-13T16:57:49;6.6;;;3.5;;
41229;SDS011;26964;50.428;19.218;2022-09-13T17:02:49;5.6;;;3.5;;
41229;SDS011;26964;50.428;19.218;2022-09-13T17:07:49;8.5;;;4.1;;
41229;SDS011;26964;50.428;19.218;2022-09-13T17:12:50;7.1;;;3.8;;
41229;SDS011;26964;50.428;19.218;2022-09-13T17:17:49;7.5;;;4.4;;
41229;SDS011;26964;50.428;19.218;2022-09-13T17:22:49;7.2;;;4.4;;
41229;SDS011;26964;50.428;19.218;2022-09-13T17:27:50;7.5;;;4.7;;
41229;SDS011;26964;50.428;19.218;2022-09-13T17:32:49;10.8;;;5.7;;
41229;SDS011;26964;50.428;19.218;2022-09-13T17:42:50;10.2;;;4.7;;
41229;SDS011;26964;50.428;19.218;2022-09-13T17:47:50;10.3;;;5.1;;
41229;SDS011;26964;50.428;19.218;2022-09-13T17:52:49;8.4;;;5.0;;
41229;SDS011;26964;50.428;19.218;2022-09-13T17:57:50;11.7;;;5.7;;
41229;SDS011;26964;50.428;19.218;2022-09-13T18:02:49;9.9;;;5.9;;
41229;SDS011;26964;50.428;19.218;2022-09-13T18:07:49;11.0;;;5.4;;
41229;SDS011;26964;50.428;19.218;2022-09-13T18:12:49;9.2;;;5.4;;
41229;SDS011;26964;50.428;19.218;2022-09-13T18:17:49;8.2;;;5.0;;
41229;SDS011;26964;50.428;19.218;2022-09-13T18:22:49;8.7;;;5.2;;
41229;SDS011;26964;50.428;19.218;2022-09-13T18:27:50;6.3;;;4.5;;
41229;SDS011;26964;50.428;19.218;2022-09-13T18:32:49;8.1;;;5.0;;
41229;SDS011;26964;50.428;19.218;2022-09-13T18:37:49;9.7;;;4.6;;
41229;SDS011;26964;50.428;19.218;2022-09-13T18:42:50;8.2;;;4.6;;
41229;SDS011;26964;50.428;19.218;2022-09-13T18:47:49;7.0;;;4.5;;
41229;SDS011;26964;50.428;19.218;2022-09-13T18:52:53;10.2;;;5.8;;
41229;SDS011;26964;50.428;19.218;2022-09-13T18:57:49;10.0;;;5.7;;
41229;SDS011;26964;50.428;19.218;2022-09-13T19:02:50;10.4;;;5.5;;
41229;SDS011;26964;50.428;19.218;2022-09-13T19:07:50;9.2;;;5.6;;
41229;SDS011;26964;50.428;19.218;2022-09-13T19:12:49;11.9;;;7.4;;
41229;SDS011;26964;50.428;19.218;2022-09-13T19:17:49;8.1;;;5.4;;
41229;SDS011;26964;50.428;19.218;2022-09-13T19:22:49;10.5;;;5.6;;
41229;SDS011;26964;50.428;19.218;2022-09-13T19:32:50;7.7;;;5.3;;
41229;SDS011;26964;50.428;19.218;2022-09-13T19:37:49;9.6;;;5.4;;
41229;SDS011;26964;50.428;19.218;2022-09-13T19:42:49;9.1;;;5.8;;
41229;SDS011;26964;50.428;19.218;2022-09-13T19:47:49;9.1;;;5.2;;
41229;SDS011;26964;50.428;19.218;2022-09-13T19:52:49;13.0;;;7.9;;
41229;SDS011;26964;50.428;19.218;2022-09-13T19:57:50;11.4;;;7.2;;
41229;SDS011;26964;50.428;19.218;2022-09-13T20:02:49;13.2;;;8.7;;
41229;SDS011;26964;50.428;19.218;2022-09-13T20:07:49;9.0;;;5.5;;
41229;SDS011;26964;50.428;19.218;2022-09-13T20:12:49;10.8;;;6.7;;
41229;SDS011;26964;50.428;19.218;2022-09-13T20:17:49;13.7;;;7.7;;
41229;SDS011;26964;50.428;19.218;2022-09-13T20:22:49;10.3;;;7.1;;
41229;SDS011;26964;50.428;19.218;2022-09-13T20:27:49;10.8;;;6.4;;
41229;SDS011;26964;50.428;19.218;2022-09-13T20:32:50;9.5;;;6.6;;
41229;SDS011;26964;50.428;19.218;2022-09-13T20:37:49;12.4;;;6.7;;
41229;SDS011;26964;50.428;19.218;2022-09-13T20:42:49;13.2;;;6.3;;
41229;SDS011;26964;50.428;19.218;2022-09-13T20:47:49;10.0;;;6.4;;
41229;SDS011;26964;50.428;19.218;2022-09-13T20:52:49;9.1;;;6.0;;
41229;SDS011;26964;50.428;19.218;2022-09-13T20:57:49;9.6;;;6.0;;
41229;SDS011;26964;50.428;19.218;2022-09-13T21:02:49;7.4;;;5.8;;
41229;SDS011;26964;50.428;19.218;2022-09-13T21:07:49;9.5;;;6.6;;
41229;SDS011;26964;50.428;19.218;2022-09-13T21:12:49;7.4;;;5.4;;
41229;SDS011;26964;50.428;19.218;2022-09-13T21:17:49;9.9;;;5.9;;
41229;SDS011;26964;50.428;19.218;2022-09-13T21:22:49;9.9;;;6.0;;
41229;SDS011;26964;50.428;19.218;2022-09-13T21:27:49;9.0;;;6.1;;
41229;SDS011;26964;50.428;19.218;2022-09-13T21:32:49;26.3;;;19.9;;
41229;SDS011;26964;50.428;19.218;2022-09-13T21:37:49;9.5;;;6.4;;
41229;SDS011;26964;50.428;19.218;2022-09-13T21:42:49;10.4;;;6.0;;
41229;SDS011;26964;50.428;19.218;2022-09-13T21:47:49;9.5;;;6.4;;
41229;SDS011;26964;50.428;19.218;2022-09-13T21:52:49;7.9;;;5.4;;
41229;SDS011;26964;50.428;19.218;2022-09-13T21:57:49;9.3;;;6.0;;
41229;SDS011;26964;50.428;19.218;2022-09-13T22:02:49;8.6;;;6.2;;
41229;SDS011;26964;50.428;19.218;2022-09-13T22:07:49;11.7;;;5.8;;
41229;SDS011;26964;50.428;19.218;2022-09-13T22:12:49;9.4;;;5.8;;
41229;SDS011;26964;50.428;19.218;2022-09-13T22:17:49;9.1;;;6.2;;
41229;SDS011;26964;50.428;19.218;2022-09-13T22:22:49;7.4;;;5.7;;
41229;SDS011;26964;50.428;19.218;2022-09-13T22:27:49;12.5;;;8.4;;
41229;SDS011;26964;50.428;19.218;2022-09-13T22:32:49;8.9;;;6.3;;
41229;SDS011;26964;50.428;19.218;2022-09-13T22:37:49;8.9;;;6.0;;
41229;SDS011;26964;50.428;19.218;2022-09-13T22:42:49;8.9;;;6.2;;
41229;SDS011;26964;50.428;19.218;2022-09-13T22:47:49;9.4;;;6.0;;
41229;SDS011;26964;50.428;19.218;2022-09-13T22:52:49;9.4;;;6.4;;
41229;SDS011;26964;50.428;19.218;2022-09-13T22:57:51;11.9;;;7.5;;
41229;SDS011;26964;50.428;19.218;2022-09-13T23:02:49;22.9;;;10.8;;
41229;SDS011;26964;50.428;19.218;2022-09-13T23:07:49;11.0;;;7.5;;
41229;SDS011;26964;50.428;19.218;2022-09-13T23:12:49;9.2;;;6.5;;
41229;SDS011;26964;50.428;19.218;2022-09-13T23:17:49;11.2;;;7.1;;
41229;SDS011;26964;50.428;19.218;2022-09-13T23:22:49;10.6;;;7.5;;
41229;SDS011;26964;50.428;19.218;2022-09-13T23:27:49;10.5;;;6.9;;
41229;SDS011;26964;50.428;19.218;2022-09-13T23:32:49;9.9;;;7.4;;
41229;SDS011;26964;50.428;19.218;2022-09-13T23:37:49;8.7;;;6.6;;
41229;SDS011;26964;50.428;19.218;2022-09-13T23:42:49;9.5;;;6.6;;
41229;SDS011;26964;50.428;19.218;2022-09-13T23:47:49;8.5;;;6.4;;
41229;SDS011;26964;50.428;19.218;2022-09-13T23:52:48;12.3;;;6.5;;
41229;SDS011;26964;50.428;19.218;2022-09-13T23:57:48;9.2;;;6.5;;
